createdAt,value
2023-01-13T00:00:21.610Z,691.00
2023-01-13T00:01:21.539Z,692.00
2023-01-13T00:02:21.538Z,692.00
2023-01-13T00:03:21.476Z,690.00
2023-01-13T00:04:21.451Z,688.00
2023-01-13T00:05:21.421Z,690.00
2023-01-13T00:06:21.403Z,689.00
2023-01-13T00:07:21.366Z,687.00
2023-01-13T00:08:21.329Z,687.00
2023-01-13T00:09:21.302Z,688.00
2023-01-13T00:10:21.299Z,689.00
2023-01-13T00:11:21.255Z,690.00
2023-01-13T00:12:21.202Z,689.00
2023-01-13T00:13:21.181Z,688.00
2023-01-13T00:14:21.162Z,683.00
2023-01-13T00:15:21.159Z,681.00
2023-01-13T00:16:21.209Z,681.00
2023-01-13T00:17:21.085Z,682.00
2023-01-13T00:18:21.054Z,682.00
2023-01-13T00:19:21.015Z,684.00
2023-01-13T00:20:21.000Z,685.00
2023-01-13T00:21:20.961Z,684.00
2023-01-13T00:22:20.939Z,681.00
2023-01-13T00:23:20.916Z,683.00
2023-01-13T00:24:20.909Z,686.00
2023-01-13T00:25:20.854Z,685.00
2023-01-13T00:26:20.830Z,682.00
2023-01-13T00:27:20.805Z,682.00
2023-01-13T00:28:20.774Z,680.00
2023-01-13T00:29:20.747Z,681.00
2023-01-13T00:30:20.751Z,681.00
2023-01-13T00:31:20.735Z,682.00
2023-01-13T00:32:20.669Z,687.00
2023-01-13T00:33:20.634Z,685.00
2023-01-13T00:34:20.599Z,683.00
2023-01-13T00:35:20.598Z,683.00
2023-01-13T00:36:20.585Z,681.00
2023-01-13T00:37:20.544Z,680.00
2023-01-13T00:38:20.502Z,680.00
2023-01-13T00:39:20.486Z,675.00
2023-01-13T00:40:20.463Z,676.00
2023-01-13T00:41:20.447Z,673.00
2023-01-13T00:42:20.425Z,672.00
2023-01-13T00:43:20.372Z,671.00
2023-01-13T00:44:20.378Z,672.00
2023-01-13T00:45:20.350Z,672.00
2023-01-13T00:46:20.398Z,671.00
2023-01-13T00:47:20.321Z,672.00
2023-01-13T00:48:20.316Z,672.00
2023-01-13T00:49:20.276Z,672.00
2023-01-13T00:50:20.273Z,670.00
2023-01-13T00:51:20.293Z,669.00
2023-01-13T00:52:20.237Z,670.00
2023-01-13T00:53:20.219Z,669.00
2023-01-13T00:54:20.193Z,668.00
2023-01-13T00:55:20.170Z,667.00
2023-01-13T00:56:34.140Z,665.00
2023-01-13T00:57:21.130Z,668.00
2023-01-13T00:58:20.113Z,669.00
2023-01-13T00:59:20.110Z,669.00
2023-01-13T01:00:20.065Z,669.00
2023-01-13T01:01:20.160Z,669.00
2023-01-13T01:02:20.083Z,666.00
2023-01-13T01:03:20.051Z,666.00
2023-01-13T01:04:20.017Z,666.00
2023-01-13T01:05:19.978Z,665.00
2023-01-13T01:06:19.962Z,668.00
2023-01-13T01:07:19.941Z,668.00
2023-01-13T01:08:19.915Z,669.00
2023-01-13T01:09:19.891Z,668.00
2023-01-13T01:10:19.859Z,669.00
2023-01-13T01:11:19.844Z,669.00
2023-01-13T01:12:19.800Z,668.00
2023-01-13T01:13:19.776Z,666.00
2023-01-13T01:14:19.762Z,665.00
2023-01-13T01:15:19.743Z,666.00
2023-01-13T01:16:19.781Z,668.00
2023-01-13T01:17:19.689Z,667.00
2023-01-13T01:18:19.670Z,667.00
2023-01-13T01:19:19.635Z,667.00
2023-01-13T01:20:19.618Z,668.00
2023-01-13T01:21:19.598Z,665.00
2023-01-13T01:22:19.576Z,667.00
2023-01-13T01:23:19.546Z,667.00
2023-01-13T01:24:19.533Z,669.00
2023-01-13T01:25:19.489Z,667.00
2023-01-13T01:26:19.481Z,667.00
2023-01-13T01:27:19.471Z,664.00
2023-01-13T01:28:19.435Z,661.00
2023-01-13T01:29:19.410Z,661.00
2023-01-13T01:30:19.385Z,660.00
2023-01-13T01:31:19.383Z,662.00
2023-01-13T01:32:19.358Z,663.00
2023-01-13T01:33:19.303Z,661.00
2023-01-13T01:34:19.286Z,661.00
2023-01-13T01:35:19.263Z,663.00
2023-01-13T01:36:19.226Z,665.00
2023-01-13T01:37:19.229Z,665.00
2023-01-13T01:38:19.183Z,664.00
2023-01-13T01:39:19.147Z,667.00
2023-01-13T01:40:19.141Z,667.00
2023-01-13T01:41:19.106Z,668.00
2023-01-13T01:42:19.074Z,666.00
2023-01-13T01:43:19.059Z,667.00
2023-01-13T01:44:19.042Z,666.00
2023-01-13T01:45:18.994Z,668.00
2023-01-13T01:46:19.000Z,666.00
2023-01-13T01:47:18.974Z,666.00
2023-01-13T01:48:18.938Z,666.00
2023-01-13T01:49:18.901Z,665.00
2023-01-13T01:50:18.889Z,665.00
2023-01-13T01:51:18.869Z,662.00
2023-01-13T01:52:18.873Z,661.00
2023-01-13T01:53:18.830Z,662.00
2023-01-13T01:54:18.834Z,661.00
2023-01-13T01:55:18.798Z,661.00
2023-01-13T01:56:18.802Z,660.00
2023-01-13T01:57:18.751Z,661.00
2023-01-13T01:58:18.730Z,658.00
2023-01-13T01:59:18.712Z,659.00
2023-01-13T02:00:18.727Z,659.00
2023-01-13T02:01:18.836Z,660.00
2023-01-13T02:02:18.749Z,660.00
2023-01-13T02:03:18.622Z,658.00
2023-01-13T02:04:18.624Z,656.00
2023-01-13T02:05:18.591Z,656.00
2023-01-13T02:06:18.556Z,658.00
2023-01-13T02:07:18.550Z,658.00
2023-01-13T02:08:18.510Z,658.00
2023-01-13T02:09:18.475Z,657.00
2023-01-13T02:10:18.463Z,657.00
2023-01-13T02:11:18.439Z,655.00
2023-01-13T02:12:18.416Z,654.00
2023-01-13T02:13:18.404Z,654.00
2023-01-13T02:14:18.359Z,655.00
2023-01-13T02:15:18.351Z,655.00
2023-01-13T02:16:18.326Z,655.00
2023-01-13T02:17:18.299Z,653.00
2023-01-13T02:18:18.289Z,655.00
2023-01-13T02:19:18.279Z,654.00
2023-01-13T02:20:18.242Z,653.00
2023-01-13T02:21:18.243Z,652.00
2023-01-13T02:22:18.265Z,651.00
2023-01-13T02:23:18.219Z,653.00
2023-01-13T02:24:18.171Z,651.00
2023-01-13T02:25:18.171Z,654.00
2023-01-13T02:26:18.203Z,655.00
2023-01-13T02:27:18.212Z,655.00
2023-01-13T02:28:18.101Z,654.00
2023-01-13T02:29:18.033Z,654.00
2023-01-13T02:30:18.001Z,655.00
2023-01-13T02:31:18.033Z,653.00
2023-01-13T02:32:17.967Z,653.00
2023-01-13T02:33:17.951Z,654.00
2023-01-13T02:34:17.905Z,653.00
2023-01-13T02:35:17.919Z,652.00
2023-01-13T02:36:17.873Z,651.00
2023-01-13T02:37:17.831Z,652.00
2023-01-13T02:38:17.846Z,652.00
2023-01-13T02:39:17.794Z,653.00
2023-01-13T02:40:17.761Z,653.00
2023-01-13T02:41:17.740Z,653.00
2023-01-13T02:42:17.716Z,652.00
2023-01-13T02:43:17.706Z,651.00
2023-01-13T02:44:17.653Z,649.00
2023-01-13T02:45:17.621Z,651.00
2023-01-13T02:46:17.614Z,652.00
2023-01-13T02:47:17.574Z,651.00
2023-01-13T02:48:17.580Z,651.00
2023-01-13T02:49:17.551Z,650.00
2023-01-13T02:50:17.563Z,649.00
2023-01-13T02:51:17.514Z,650.00
2023-01-13T02:52:17.481Z,650.00
2023-01-13T02:53:17.509Z,651.00
2023-01-13T02:54:17.429Z,651.00
2023-01-13T02:55:17.413Z,648.00
2023-01-13T02:56:17.409Z,648.00
2023-01-13T02:57:17.391Z,646.00
2023-01-13T02:58:17.375Z,645.00
2023-01-13T02:59:17.389Z,647.00
2023-01-13T03:00:17.353Z,649.00
2023-01-13T03:01:17.428Z,648.00
2023-01-13T03:02:17.552Z,647.00
2023-01-13T03:03:17.284Z,647.00
2023-01-13T03:04:17.279Z,650.00
2023-01-13T03:05:17.276Z,648.00
2023-01-13T03:06:17.266Z,646.00
2023-01-13T03:07:17.210Z,646.00
2023-01-13T03:08:17.201Z,646.00
2023-01-13T03:09:17.180Z,644.00
2023-01-13T03:10:17.161Z,644.00
2023-01-13T03:11:17.125Z,644.00
2023-01-13T03:12:17.098Z,643.00
2023-01-13T03:13:17.078Z,642.00
2023-01-13T03:14:17.088Z,642.00
2023-01-13T03:15:17.014Z,640.00
2023-01-13T03:16:17.042Z,639.00
2023-01-13T03:17:16.967Z,639.00
2023-01-13T03:18:16.957Z,637.00
2023-01-13T03:19:16.931Z,638.00
2023-01-13T03:20:16.934Z,640.00
2023-01-13T03:21:16.875Z,638.00
2023-01-13T03:22:16.850Z,638.00
2023-01-13T03:23:16.835Z,637.00
2023-01-13T03:24:16.807Z,636.00
2023-01-13T03:25:16.755Z,635.00
2023-01-13T03:26:16.741Z,634.00
2023-01-13T03:27:16.715Z,634.00
2023-01-13T03:28:16.687Z,633.00
2023-01-13T03:29:16.699Z,633.00
2023-01-13T03:30:16.631Z,631.00
2023-01-13T03:31:16.598Z,631.00
2023-01-13T03:32:16.587Z,631.00
2023-01-13T03:33:16.570Z,631.00
2023-01-13T03:34:16.942Z,631.00
2023-01-13T03:35:16.535Z,628.00
2023-01-13T03:36:16.497Z,627.00
2023-01-13T03:37:16.457Z,624.00
2023-01-13T03:38:16.449Z,622.00
2023-01-13T03:39:16.440Z,625.00
2023-01-13T03:40:16.418Z,624.00
2023-01-13T03:41:16.381Z,625.00
2023-01-13T03:42:16.349Z,624.00
2023-01-13T03:43:16.352Z,622.00
2023-01-13T03:44:16.307Z,624.00
2023-01-13T03:45:16.315Z,623.00
2023-01-13T03:46:16.272Z,623.00
2023-01-13T03:47:16.236Z,624.00
2023-01-13T03:48:16.202Z,625.00
2023-01-13T03:49:16.200Z,627.00
2023-01-13T03:50:16.176Z,627.00
2023-01-13T03:51:16.149Z,628.00
2023-01-13T03:52:16.106Z,628.00
2023-01-13T03:53:16.088Z,629.00
2023-01-13T03:54:16.063Z,629.00
2023-01-13T03:55:16.046Z,625.00
2023-01-13T03:56:16.032Z,625.00
2023-01-13T03:57:15.989Z,625.00
2023-01-13T03:58:16.043Z,624.00
2023-01-13T03:59:15.947Z,624.00
2023-01-13T04:00:15.948Z,624.00
2023-01-13T04:01:15.965Z,624.00
2023-01-13T04:02:15.955Z,622.00
2023-01-13T04:03:15.861Z,620.00
2023-01-13T04:04:15.837Z,619.00
2023-01-13T04:05:15.841Z,617.00
2023-01-13T04:06:15.807Z,616.00
2023-01-13T04:07:15.777Z,616.00
2023-01-13T04:08:15.760Z,616.00
2023-01-13T04:09:15.717Z,617.00
2023-01-13T04:10:15.711Z,620.00
2023-01-13T04:11:15.694Z,619.00
2023-01-13T04:12:15.678Z,620.00
2023-01-13T04:13:15.646Z,619.00
2023-01-13T04:14:15.636Z,620.00
2023-01-13T04:15:15.642Z,620.00
2023-01-13T04:16:15.630Z,618.00
2023-01-13T04:17:15.592Z,617.00
2023-01-13T04:18:15.571Z,619.00
2023-01-13T04:19:15.531Z,619.00
2023-01-13T04:20:15.544Z,619.00
2023-01-13T04:21:15.489Z,619.00
2023-01-13T04:22:15.707Z,621.00
2023-01-13T04:23:15.444Z,623.00
2023-01-13T04:24:15.424Z,623.00
2023-01-13T04:25:15.441Z,625.00
2023-01-13T04:26:15.399Z,626.00
2023-01-13T04:27:15.355Z,625.00
2023-01-13T04:28:15.367Z,622.00
2023-01-13T04:29:15.833Z,622.00
2023-01-13T04:30:15.307Z,620.00
2023-01-13T04:31:15.323Z,620.00
2023-01-13T04:32:26.216Z,617.00
2023-01-13T04:33:15.246Z,618.00
2023-01-13T04:34:15.224Z,616.00
2023-01-13T04:35:15.190Z,611.00
2023-01-13T04:36:15.185Z,610.00
2023-01-13T04:37:15.155Z,612.00
2023-01-13T04:38:15.194Z,611.00
2023-01-13T04:39:15.087Z,612.00
2023-01-13T04:40:15.083Z,614.00
2023-01-13T04:41:15.084Z,617.00
2023-01-13T04:42:15.040Z,619.00
2023-01-13T04:43:15.011Z,622.00
2023-01-13T04:44:14.979Z,622.00
2023-01-13T04:45:14.976Z,620.00
2023-01-13T04:46:15.024Z,619.00
2023-01-13T04:47:14.942Z,616.00
2023-01-13T04:48:14.924Z,616.00
2023-01-13T04:49:14.878Z,619.00
2023-01-13T04:50:14.886Z,617.00
2023-01-13T04:51:14.880Z,618.00
2023-01-13T04:52:14.846Z,617.00
2023-01-13T04:53:14.851Z,617.00
2023-01-13T04:54:14.809Z,618.00
2023-01-13T04:55:14.787Z,617.00
2023-01-13T04:56:14.822Z,614.00
2023-01-13T04:57:14.739Z,613.00
2023-01-13T04:58:14.743Z,614.00
2023-01-13T04:59:14.726Z,614.00
2023-01-13T05:00:14.706Z,614.00
2023-01-13T05:01:14.856Z,613.00
2023-01-13T05:02:14.736Z,614.00
2023-01-13T05:03:14.625Z,616.00
2023-01-13T05:04:14.592Z,616.00
2023-01-13T05:05:14.577Z,615.00
2023-01-13T05:06:14.613Z,614.00
2023-01-13T05:07:14.539Z,614.00
2023-01-13T05:08:14.496Z,615.00
2023-01-13T05:09:14.473Z,612.00
2023-01-13T05:10:14.447Z,613.00
2023-01-13T05:11:14.428Z,612.00
2023-01-13T05:12:14.412Z,611.00
2023-01-13T05:13:14.372Z,610.00
2023-01-13T05:14:14.346Z,607.00
2023-01-13T05:15:14.335Z,605.00
2023-01-13T05:16:14.360Z,603.00
2023-01-13T05:17:14.286Z,602.00
2023-01-13T05:18:14.262Z,601.00
2023-01-13T05:19:14.222Z,601.00
2023-01-13T05:20:14.199Z,600.00
2023-01-13T05:21:14.207Z,600.00
2023-01-13T05:22:14.178Z,602.00
2023-01-13T05:23:14.176Z,601.00
2023-01-13T05:24:14.127Z,598.00
2023-01-13T05:25:14.101Z,598.00
2023-01-13T05:26:14.082Z,595.00
2023-01-13T05:27:14.064Z,593.00
2023-01-13T05:28:14.039Z,595.00
2023-01-13T05:29:14.034Z,593.00
2023-01-13T05:30:14.001Z,596.00
2023-01-13T05:31:13.987Z,594.00
2023-01-13T05:32:13.979Z,594.00
2023-01-13T05:33:13.938Z,592.00
2023-01-13T05:34:13.929Z,592.00
2023-01-13T05:35:13.892Z,590.00
2023-01-13T05:36:13.901Z,588.00
2023-01-13T05:37:13.853Z,587.00
2023-01-13T05:38:13.828Z,587.00
2023-01-13T05:39:13.802Z,587.00
2023-01-13T05:40:13.761Z,586.00
2023-01-13T05:41:13.745Z,588.00
2023-01-13T05:42:13.747Z,587.00
2023-01-13T05:43:13.710Z,589.00
2023-01-13T05:44:13.666Z,588.00
2023-01-13T05:45:13.648Z,588.00
2023-01-13T05:46:13.609Z,589.00
2023-01-13T05:47:13.606Z,589.00
2023-01-13T05:48:13.543Z,589.00
2023-01-13T05:49:13.518Z,591.00
2023-01-13T05:50:13.498Z,592.00
2023-01-13T05:51:13.498Z,588.00
2023-01-13T05:52:13.461Z,590.00
2023-01-13T05:53:13.431Z,590.00
2023-01-13T05:54:13.401Z,587.00
2023-01-13T05:55:13.374Z,584.00
2023-01-13T05:56:13.359Z,589.00
2023-01-13T05:57:13.341Z,592.00
2023-01-13T05:58:13.337Z,595.00
2023-01-13T05:59:13.310Z,597.00
2023-01-13T06:00:13.281Z,597.00
2023-01-13T06:01:13.283Z,601.00
2023-01-13T06:02:13.237Z,602.00
2023-01-13T06:03:13.265Z,603.00
2023-01-13T06:04:13.205Z,602.00
2023-01-13T06:05:13.162Z,598.00
2023-01-13T06:06:13.116Z,598.00
2023-01-13T06:07:13.134Z,599.00
2023-01-13T06:08:13.092Z,598.00
2023-01-13T06:09:13.069Z,598.00
2023-01-13T06:10:13.043Z,598.00
2023-01-13T06:11:13.038Z,598.00
2023-01-13T06:12:13.027Z,599.00
2023-01-13T06:13:12.992Z,597.00
2023-01-13T06:14:12.957Z,595.00
2023-01-13T06:15:12.926Z,595.00
2023-01-13T06:16:12.956Z,594.00
2023-01-13T06:17:12.889Z,594.00
2023-01-13T06:18:12.905Z,594.00
2023-01-13T06:19:12.883Z,592.00
2023-01-13T06:20:12.873Z,589.00
2023-01-13T06:21:12.821Z,586.00
2023-01-13T06:22:12.811Z,586.00
2023-01-13T06:23:12.814Z,584.00
2023-01-13T06:24:12.764Z,586.00
2023-01-13T06:25:12.732Z,585.00
2023-01-13T06:26:12.729Z,582.00
2023-01-13T06:27:12.711Z,581.00
2023-01-13T06:28:12.688Z,579.00
2023-01-13T06:29:12.661Z,578.00
2023-01-13T06:30:12.612Z,577.00
2023-01-13T06:31:12.758Z,579.00
2023-01-13T06:32:12.580Z,587.00
2023-01-13T06:33:12.600Z,531.00
2023-01-13T06:34:12.609Z,527.00
2023-01-13T06:35:12.654Z,524.00
2023-01-13T06:36:12.661Z,532.00
2023-01-13T06:37:12.674Z,523.00
2023-01-13T06:38:12.740Z,512.00
2023-01-13T06:39:12.768Z,515.00
2023-01-13T06:40:12.815Z,525.00
2023-01-13T06:41:12.837Z,538.00
2023-01-13T06:42:12.870Z,550.00
2023-01-13T06:43:15.802Z,559.00
2023-01-13T06:44:12.938Z,592.00
2023-01-13T06:45:12.943Z,658.00
2023-01-13T06:46:12.998Z,622.00
2023-01-13T06:47:12.974Z,611.00
2023-01-13T06:48:12.998Z,629.00
2023-01-13T06:49:13.046Z,651.00
2023-01-13T06:50:13.127Z,655.00
2023-01-13T06:51:13.071Z,661.00
2023-01-13T06:52:13.066Z,670.00
2023-01-13T06:53:13.101Z,739.00
2023-01-13T06:54:13.121Z,773.00
2023-01-13T06:55:13.121Z,787.00
2023-01-13T06:56:13.135Z,823.00
2023-01-13T06:57:13.174Z,822.00
2023-01-13T06:58:13.135Z,831.00
2023-01-13T06:59:13.139Z,840.00
2023-01-13T07:00:13.141Z,927.00
2023-01-13T07:01:13.263Z,922.00
2023-01-13T07:02:13.227Z,928.00
2023-01-13T07:03:13.128Z,926.00
2023-01-13T07:04:15.581Z,936.00
2023-01-13T07:05:19.109Z,942.00
2023-01-13T07:06:19.537Z,952.00
2023-01-13T07:07:18.614Z,960.00
2023-01-13T07:08:19.741Z,976.00
2023-01-13T07:09:18.596Z,1014.00
2023-01-13T07:10:18.151Z,1030.00
2023-01-13T07:11:15.917Z,1036.00
2023-01-13T07:12:17.879Z,1052.00
2023-01-13T07:13:17.897Z,1157.00
2023-01-13T07:14:18.136Z,1152.00
2023-01-13T07:15:18.079Z,1132.00
2023-01-13T07:16:18.015Z,1222.00
2023-01-13T07:17:17.554Z,1194.00
2023-01-13T07:18:13.071Z,1195.00
2023-01-13T07:19:15.401Z,1193.00
2023-01-13T07:20:15.137Z,1196.00
2023-01-13T07:21:15.535Z,1233.00
2023-01-13T07:22:12.987Z,1282.00
2023-01-13T07:23:13.008Z,1273.00
2023-01-13T07:24:12.993Z,1288.00
2023-01-13T07:25:12.958Z,1296.00
2023-01-13T07:26:12.940Z,1304.00
2023-01-13T07:27:12.934Z,1311.00
2023-01-13T07:28:12.916Z,1309.00
2023-01-13T07:29:12.892Z,1310.00
2023-01-13T07:30:12.836Z,1323.00
2023-01-13T07:31:12.860Z,1333.00
2023-01-13T07:32:12.804Z,1337.00
2023-01-13T07:33:12.829Z,1348.00
2023-01-13T07:34:12.766Z,1358.00
2023-01-13T07:35:12.736Z,1371.00
2023-01-13T07:36:12.719Z,1381.00
2023-01-13T07:37:12.673Z,1387.00
2023-01-13T07:38:12.664Z,1403.00
2023-01-13T07:39:12.640Z,1419.00
2023-01-13T07:40:12.607Z,1433.00
2023-01-13T07:41:12.578Z,1632.00
2023-01-13T07:42:12.546Z,1515.00
2023-01-13T07:43:12.657Z,1519.00
2023-01-13T07:44:12.492Z,1477.00
2023-01-13T07:45:12.578Z,1492.00
2023-01-13T07:46:12.789Z,1509.00
2023-01-13T07:47:12.520Z,1467.00
2023-01-13T07:48:12.486Z,1307.00
2023-01-13T07:49:12.496Z,1146.00
2023-01-13T07:50:16.159Z,1132.00
2023-01-13T07:57:24.672Z,1054.00
2023-01-13T08:04:13.084Z,1049.00
2023-01-13T08:05:13.087Z,1055.00
2023-01-13T08:06:13.082Z,1056.00
2023-01-13T08:07:13.101Z,1060.00
2023-01-13T08:08:13.074Z,1058.00
2023-01-13T08:09:13.134Z,1057.00
2023-01-13T08:10:13.102Z,1060.00
2023-01-13T08:11:13.096Z,1065.00
2023-01-13T08:12:13.109Z,1058.00
2023-01-13T08:13:13.094Z,1055.00
2023-01-13T08:14:13.093Z,1063.00
2023-01-13T08:15:13.135Z,1072.00
2023-01-13T08:16:13.157Z,1083.00
2023-01-13T08:17:13.097Z,1099.00
2023-01-13T08:18:13.070Z,1130.00
2023-01-13T08:19:13.037Z,1176.00
2023-01-13T08:20:13.043Z,1191.00
2023-01-13T08:21:13.174Z,1211.00
2023-01-13T08:22:12.970Z,1226.00
2023-01-13T08:23:12.963Z,1237.00
2023-01-13T08:24:13.000Z,1250.00
2023-01-13T08:25:12.946Z,1259.00
2023-01-13T08:26:12.930Z,1266.00
2023-01-13T08:27:12.908Z,1273.00
2023-01-13T08:28:12.907Z,1294.00
2023-01-13T08:33:13.357Z,1390.00
2023-01-13T08:47:12.759Z,1638.00
2023-01-13T08:50:12.754Z,1621.00
2023-01-13T10:25:11.788Z,1042.00
2023-01-13T10:26:11.757Z,1036.00
2023-01-13T10:27:11.655Z,1030.00
2023-01-13T10:28:11.681Z,1024.00
2023-01-13T10:29:11.621Z,1018.00
2023-01-13T10:30:11.577Z,1016.00
2023-01-13T10:31:11.639Z,1010.00
2023-01-13T10:32:11.531Z,1007.00
2023-01-13T10:33:11.521Z,1002.00
2023-01-13T10:34:11.501Z,1000.00
2023-01-13T10:35:11.465Z,1000.00
2023-01-13T10:36:11.433Z,996.00
2023-01-13T10:37:11.440Z,989.00
2023-01-13T10:38:11.429Z,988.00
2023-01-13T10:39:11.386Z,985.00
2023-01-13T10:40:11.336Z,982.00
2023-01-13T10:41:11.370Z,984.00
2023-01-13T10:42:11.344Z,996.00
2023-01-13T10:43:11.291Z,1035.00
2023-01-13T10:44:11.253Z,1093.00
2023-01-13T10:45:11.439Z,986.00
2023-01-13T10:46:11.299Z,955.00
2023-01-13T10:47:11.180Z,953.00
2023-01-13T10:48:11.181Z,962.00
2023-01-13T10:49:11.165Z,920.00
2023-01-13T10:50:11.198Z,859.00
2023-01-13T10:51:11.117Z,829.00
2023-01-13T10:52:11.088Z,737.00
2023-01-13T10:53:11.069Z,741.00
2023-01-13T10:54:11.024Z,812.00
2023-01-13T10:55:11.038Z,846.00
2023-01-13T10:56:11.047Z,754.00
2023-01-13T10:57:10.982Z,747.00
2023-01-13T10:58:10.965Z,754.00
2023-01-13T10:59:10.918Z,745.00
2023-01-13T11:00:10.901Z,732.00
2023-01-13T11:01:10.866Z,736.00
2023-01-13T11:02:24.916Z,740.00
2023-01-13T11:04:10.842Z,690.00
2023-01-13T11:05:10.825Z,660.00
2023-01-13T11:06:10.749Z,646.00
2023-01-13T11:07:10.744Z,637.00
2023-01-13T11:50:22.676Z,1006.00
2023-01-13T11:56:24.196Z,886.00
2023-01-13T11:57:12.035Z,900.00
2023-01-13T11:58:12.363Z,1006.00
2023-01-13T12:00:14.026Z,1021.00
2023-01-13T12:01:16.219Z,1023.00
2023-01-13T12:02:16.457Z,1035.00
2023-01-13T12:05:03.555Z,1064.00
2023-01-13T12:06:25.004Z,1077.00
2023-01-13T12:07:26.243Z,1087.00
2023-01-13T12:11:52.274Z,1122.00
2023-01-13T12:23:39.850Z,1107.00
2023-01-13T12:24:39.812Z,1139.00
2023-01-13T12:25:39.751Z,1133.00
2023-01-13T12:26:39.718Z,1131.00
2023-01-13T12:27:39.641Z,1144.00
2023-01-13T12:28:39.663Z,1143.00
2023-01-13T12:29:39.787Z,1138.00
2023-01-13T12:30:39.509Z,1128.00
2023-01-13T12:31:39.479Z,1113.00
2023-01-13T12:32:39.381Z,1095.00
2023-01-13T12:33:39.319Z,1086.00
2023-01-13T12:34:39.279Z,1074.00
2023-01-13T12:35:39.247Z,1063.00
2023-01-13T12:36:39.163Z,1054.00
2023-01-13T12:37:39.111Z,1047.00
2023-01-13T12:38:39.074Z,1043.00
2023-01-13T12:39:39.005Z,1039.00
2023-01-13T12:40:38.973Z,1035.00
2023-01-13T12:44:38.730Z,1025.00
2023-01-13T12:45:38.727Z,1021.00
2023-01-13T12:46:38.653Z,1018.00
2023-01-13T12:47:38.583Z,1013.00
2023-01-13T12:48:38.528Z,1010.00
2023-01-13T12:49:38.480Z,1003.00
2023-01-13T12:50:38.451Z,999.00
2023-01-13T12:51:38.389Z,995.00
2023-01-13T12:52:38.338Z,990.00
2023-01-13T12:53:38.279Z,992.00
2023-01-13T12:54:38.225Z,990.00
2023-01-13T12:55:38.421Z,984.00
2023-01-13T12:56:38.151Z,981.00
2023-01-13T12:57:38.097Z,979.00
2023-01-13T12:58:38.027Z,981.00
2023-01-13T12:59:37.983Z,975.00
2023-01-13T13:00:37.942Z,972.00
2023-01-13T13:01:38.068Z,970.00
2023-01-13T13:02:37.909Z,967.00
2023-01-13T13:03:37.791Z,966.00
2023-01-13T13:04:37.727Z,966.00
2023-01-13T13:05:37.698Z,965.00
2023-01-13T13:06:37.636Z,965.00
2023-01-13T13:07:37.588Z,964.00
2023-01-13T13:08:37.527Z,961.00
2023-01-13T13:09:37.473Z,958.00
2023-01-13T13:10:37.472Z,957.00
2023-01-13T13:11:37.375Z,958.00
2023-01-13T13:12:37.338Z,957.00
2023-01-13T13:13:37.287Z,957.00
2023-01-13T13:14:37.305Z,956.00
2023-01-13T13:15:37.200Z,957.00
2023-01-13T13:16:37.261Z,957.00
2023-01-13T13:17:37.094Z,953.00
2023-01-13T13:18:37.072Z,949.00
2023-01-13T13:19:36.998Z,950.00
2023-01-13T13:20:36.976Z,950.00
2023-01-13T13:21:36.923Z,945.00
2023-01-13T13:22:36.855Z,946.00
2023-01-13T13:23:36.800Z,944.00
2023-01-13T13:24:36.747Z,946.00
2023-01-13T13:25:36.696Z,945.00
2023-01-13T13:26:36.661Z,941.00
2023-01-13T13:27:36.581Z,937.00
2023-01-13T13:28:36.530Z,935.00
2023-01-13T13:29:36.505Z,933.00
2023-01-13T13:30:36.566Z,932.00
2023-01-13T13:31:36.391Z,932.00
2023-01-13T13:32:36.336Z,933.00
2023-01-13T13:33:37.823Z,933.00
2023-01-13T13:34:36.240Z,932.00
2023-01-13T13:35:36.192Z,929.00
2023-01-13T13:36:36.153Z,925.00
2023-01-13T13:37:36.066Z,924.00
2023-01-13T13:38:36.025Z,921.00
2023-01-13T13:39:37.602Z,922.00
2023-01-13T13:40:35.921Z,920.00
2023-01-13T13:41:35.912Z,919.00
2023-01-13T13:42:35.820Z,920.00
2023-01-13T13:43:35.773Z,916.00
2023-01-13T13:44:35.727Z,916.00
2023-01-13T13:45:36.628Z,916.00
2023-01-13T13:46:35.712Z,916.00
2023-01-13T13:47:35.567Z,911.00
2023-01-13T13:48:35.517Z,908.00
2023-01-13T13:49:35.483Z,905.00
2023-01-13T13:50:35.439Z,904.00
2023-01-13T13:51:35.393Z,901.00
2023-01-13T13:52:35.342Z,901.00
2023-01-13T13:53:35.296Z,902.00
2023-01-13T13:54:35.225Z,901.00
2023-01-13T13:55:35.194Z,901.00
2023-01-13T13:56:35.132Z,904.00
2023-01-13T13:57:35.076Z,903.00
2023-01-13T13:58:35.041Z,905.00
2023-01-13T13:59:34.976Z,909.00
2023-01-13T14:00:34.924Z,910.00
2023-01-13T14:01:35.040Z,908.00
2023-01-13T14:02:34.825Z,904.00
2023-01-13T14:03:34.774Z,904.00
2023-01-13T14:04:34.775Z,902.00
2023-01-13T14:05:34.697Z,899.00
2023-01-13T14:06:34.627Z,897.00
2023-01-13T14:07:34.592Z,895.00
2023-01-13T14:08:34.487Z,893.00
2023-01-13T14:09:34.448Z,887.00
2023-01-13T14:10:34.431Z,888.00
2023-01-13T14:11:34.338Z,887.00
2023-01-13T14:12:34.405Z,895.00
2023-01-13T14:13:34.239Z,896.00
2023-01-13T14:14:34.209Z,889.00
2023-01-13T14:15:34.197Z,882.00
2023-01-13T14:16:36.152Z,876.00
2023-01-13T14:17:34.052Z,872.00
2023-01-13T14:18:34.003Z,870.00
2023-01-13T14:19:33.948Z,866.00
2023-01-13T14:20:33.910Z,857.00
2023-01-13T14:21:33.887Z,851.00
2023-01-13T14:22:33.949Z,850.00
2023-01-13T14:23:33.756Z,843.00
2023-01-13T14:24:33.724Z,838.00
2023-01-13T14:25:33.695Z,836.00
2023-01-13T14:26:33.644Z,834.00
2023-01-13T14:27:34.878Z,833.00
2023-01-13T14:28:33.573Z,829.00
2023-01-13T14:29:33.505Z,825.00
2023-01-13T14:30:33.448Z,825.00
2023-01-13T14:31:33.403Z,820.00
2023-01-13T14:32:33.390Z,822.00
2023-01-13T14:33:33.317Z,821.00
2023-01-13T14:34:33.398Z,818.00
2023-01-13T14:35:33.240Z,814.00
2023-01-13T14:36:33.209Z,810.00
2023-01-13T14:37:33.159Z,806.00
2023-01-13T14:38:33.113Z,803.00
2023-01-13T14:39:33.094Z,798.00
2023-01-13T14:40:33.035Z,793.00
2023-01-13T14:41:32.994Z,793.00
2023-01-13T14:42:32.965Z,790.00
2023-01-13T14:43:32.911Z,785.00
2023-01-13T14:44:32.859Z,782.00
2023-01-13T14:45:32.819Z,779.00
2023-01-13T14:46:32.812Z,776.00
2023-01-13T14:47:32.745Z,772.00
2023-01-13T14:48:32.696Z,768.00
2023-01-13T14:49:32.658Z,769.00
2023-01-13T14:50:32.612Z,765.00
2023-01-13T14:51:32.572Z,763.00
2023-01-13T14:52:32.564Z,763.00
2023-01-13T14:53:32.495Z,764.00
2023-01-13T14:54:32.435Z,762.00
2023-01-13T14:55:32.384Z,763.00
2023-01-13T14:56:32.349Z,761.00
2023-01-13T14:57:32.336Z,764.00
2023-01-13T14:58:32.291Z,763.00
2023-01-13T14:59:32.235Z,760.00
2023-01-13T15:00:32.209Z,760.00
2023-01-13T15:01:32.292Z,759.00
2023-01-13T15:02:34.012Z,759.00
2023-01-13T15:03:32.225Z,756.00
2023-01-13T15:04:33.189Z,754.00
2023-01-13T15:05:32.125Z,753.00
2023-01-13T15:06:32.119Z,753.00
2023-01-13T15:07:32.034Z,753.00
2023-01-13T15:08:33.457Z,750.00
2023-01-13T15:09:32.054Z,751.00
2023-01-13T15:10:32.018Z,753.00
2023-01-13T15:11:31.970Z,754.00
2023-01-13T15:12:31.957Z,750.00
2023-01-13T15:13:31.918Z,751.00
2023-01-13T15:14:31.849Z,752.00
2023-01-13T15:15:31.813Z,750.00
2023-01-13T15:16:33.940Z,750.00
2023-01-13T15:17:31.749Z,748.00
2023-01-13T15:18:31.713Z,749.00
2023-01-13T15:19:31.652Z,749.00
2023-01-13T15:20:31.603Z,745.00
2023-01-13T15:21:31.565Z,743.00
2023-01-13T15:22:31.530Z,743.00
2023-01-13T15:23:31.504Z,744.00
2023-01-13T15:24:31.442Z,746.00
2023-01-13T15:25:31.422Z,745.00
2023-01-13T15:26:31.360Z,745.00
2023-01-13T15:27:31.319Z,742.00
2023-01-13T15:28:31.300Z,740.00
2023-01-13T15:29:31.262Z,739.00
2023-01-13T15:30:31.218Z,740.00
2023-01-13T15:31:31.178Z,739.00
2023-01-13T15:32:31.118Z,741.00
2023-01-13T15:33:31.093Z,741.00
2023-01-13T15:34:31.032Z,739.00
2023-01-13T15:35:31.002Z,739.00
2023-01-13T15:36:30.963Z,739.00
2023-01-13T15:37:30.913Z,738.00